sensor_id;sensor_type;location;lat;lon;timestamp;pressure;altitude;pressure_sealevel;temperature;humidity
24280;BME280;12395;42.808;23.408;2022-09-17T00:00:23;94093.28;;;16.27;100.00
24280;BME280;12395;42.808;23.408;2022-09-17T00:02:50;94092.47;;;16.26;100.00
24280;BME280;12395;42.808;23.408;2022-09-17T00:05:22;94091.97;;;16.29;100.00
24280;BME280;12395;42.808;23.408;2022-09-17T00:07:51;94067.06;;;16.23;100.00
24280;BME280;12395;42.808;23.408;2022-09-17T00:10:19;94074.84;;;16.25;100.00
24280;BME280;12395;42.808;23.408;2022-09-17T00:12:45;94083.41;;;16.32;100.00
24280;BME280;12395;42.808;23.408;2022-09-17T00:15:10;94085.56;;;16.40;100.00
24280;BME280;12395;42.808;23.408;2022-09-17T00:17:36;94090.66;;;16.42;100.00
24280;BME280;12395;42.808;23.408;2022-09-17T00:20:05;94089.84;;;16.41;100.00
24280;BME280;12395;42.808;23.408;2022-09-17T00:22:40;94083.16;;;16.39;100.00
24280;BME280;12395;42.808;23.408;2022-09-17T00:25:06;94095.75;;;16.43;100.00
24280;BME280;12395;42.808;23.408;2022-09-17T00:27:33;94085.56;;;16.40;100.00
24280;BME280;12395;42.808;23.408;2022-09-17T00:29:58;94081.84;;;16.41;100.00
24280;BME280;12395;42.808;23.408;2022-09-17T00:32:23;94080.22;;;16.35;100.00
24280;BME280;12395;42.808;23.408;2022-09-17T00:34:50;94083.41;;;16.32;100.00
24280;BME280;12395;42.808;23.408;2022-09-17T00:37:17;94063.59;;;16.23;100.00
24280;BME280;12395;42.808;23.408;2022-09-17T00:39:43;94062.56;;;16.34;100.00
24280;BME280;12395;42.808;23.408;2022-09-17T00:42:11;94067.59;;;16.26;100.00
24280;BME280;12395;42.808;23.408;2022-09-17T00:47:21;94090.91;;;16.35;100.00
24280;BME280;12395;42.808;23.408;2022-09-17T00:49:50;94082.66;;;16.42;100.00
24280;BME280;12395;42.808;23.408;2022-09-17T00:52:20;94086.91;;;16.38;100.00
24280;BME280;12395;42.808;23.408;2022-09-17T00:54:56;94099.50;;;16.42;100.00
24280;BME280;12395;42.808;23.408;2022-09-17T00:57:23;94100.59;;;16.46;100.00
24280;BME280;12395;42.808;23.408;2022-09-17T00:59:49;94088.22;;;16.30;100.00
24280;BME280;12395;42.808;23.408;2022-09-17T01:02:15;94083.41;;;16.32;100.00
24280;BME280;12395;42.808;23.408;2022-09-17T01:04:41;94078.56;;;16.24;100.00
24280;BME280;12395;42.808;23.408;2022-09-17T01:15:48;94075.63;;;16.26;100.00
24280;BME280;12395;42.808;23.408;2022-09-17T01:18:21;94081.25;;;16.24;100.00
24280;BME280;12395;42.808;23.408;2022-09-17T01:26:42;94077.47;;;16.15;100.00
24280;BME280;12395;42.808;23.408;2022-09-17T01:34:37;94052.34;;;16.16;100.00
24280;BME280;12395;42.808;23.408;2022-09-17T01:39:37;94053.47;;;16.30;100.00
24280;BME280;12395;42.808;23.408;2022-09-17T01:42:37;94064.97;;;16.31;100.00
24280;BME280;12395;42.808;23.408;2022-09-17T01:48:06;94063.59;;;16.23;100.00
24280;BME280;12395;42.808;23.408;2022-09-17T01:50:40;94060.91;;;16.23;100.00
24280;BME280;12395;42.808;23.408;2022-09-17T01:53:08;94056.91;;;16.26;100.00
24280;BME280;12395;42.808;23.408;2022-09-17T01:55:37;94098.63;;;16.32;100.00
24280;BME280;12395;42.808;23.408;2022-09-17T01:58:13;94082.88;;;16.25;100.00
24280;BME280;12395;42.808;23.408;2022-09-17T02:00:43;94097.84;;;16.31;100.00
24280;BME280;12395;42.808;23.408;2022-09-17T02:03:17;94051.28;;;16.17;100.00
24280;BME280;12395;42.808;23.408;2022-09-17T02:06:03;94026.72;;;16.30;100.00
24280;BME280;12395;42.808;23.408;2022-09-17T02:11:14;93994.09;;;16.18;100.00
24280;BME280;12395;42.808;23.408;2022-09-17T02:13:53;94001.09;;;16.39;100.00
24280;BME280;12395;42.808;23.408;2022-09-17T02:16:26;93995.72;;;16.34;100.00
24280;BME280;12395;42.808;23.408;2022-09-17T02:19:05;93986.91;;;16.29;100.00
24280;BME280;12395;42.808;23.408;2022-09-17T02:22:08;93954.78;;;16.08;100.00
24280;BME280;12395;42.808;23.408;2022-09-17T02:30:10;93969.00;;;16.29;100.00
24280;BME280;12395;42.808;23.408;2022-09-17T02:32:36;93970.03;;;16.23;100.00
24280;BME280;12395;42.808;23.408;2022-09-17T02:35:02;93974.84;;;16.11;100.00
24280;BME280;12395;42.808;23.408;2022-09-17T02:37:28;93977.47;;;16.06;100.00
24280;BME280;12395;42.808;23.408;2022-09-17T02:39:53;93967.63;;;16.11;100.00
24280;BME280;12395;42.808;23.408;2022-09-17T02:42:46;93970.31;;;16.16;100.00
24280;BME280;12395;42.808;23.408;2022-09-17T02:45:36;93970.59;;;16.20;100.00
24280;BME280;12395;42.808;23.408;2022-09-17T02:51:20;93940.38;;;16.30;100.00
24280;BME280;12395;42.808;23.408;2022-09-17T03:02:21;93933.50;;;16.89;100.00
24280;BME280;12395;42.808;23.408;2022-09-17T03:04:49;93932.13;;;17.02;100.00
24280;BME280;12395;42.808;23.408;2022-09-17T03:07:16;93937.50;;;17.02;100.00
24280;BME280;12395;42.808;23.408;2022-09-17T03:09:42;93936.16;;;16.89;100.00
24280;BME280;12395;42.808;23.408;2022-09-17T03:12:09;93920.91;;;16.94;100.00
24280;BME280;12395;42.808;23.408;2022-09-17T03:14:35;93929.69;;;17.20;100.00
24280;BME280;12395;42.808;23.408;2022-09-17T03:17:00;93919.47;;;17.37;100.00
24280;BME280;12395;42.808;23.408;2022-09-17T03:19:26;93938.19;;;17.52;100.00
24280;BME280;12395;42.808;23.408;2022-09-17T03:21:52;93931.50;;;17.50;100.00
24280;BME280;12395;42.808;23.408;2022-09-17T03:24:17;93911.41;;;17.57;99.16
24280;BME280;12395;42.808;23.408;2022-09-17T03:26:43;93918.78;;;17.81;100.00
24280;BME280;12395;42.808;23.408;2022-09-17T03:29:08;93912.16;;;17.63;100.00
24280;BME280;12395;42.808;23.408;2022-09-17T03:31:34;93908.16;;;17.60;100.00
24280;BME280;12395;42.808;23.408;2022-09-17T03:34:00;93906.00;;;17.62;100.00
24280;BME280;12395;42.808;23.408;2022-09-17T03:36:25;93893.44;;;17.58;100.00
24280;BME280;12395;42.808;23.408;2022-09-17T03:38:57;93912.69;;;17.70;100.00
24280;BME280;12395;42.808;23.408;2022-09-17T03:41:23;93927.66;;;17.76;100.00
24280;BME280;12395;42.808;23.408;2022-09-17T03:43:49;93911.34;;;17.62;100.00
24280;BME280;12395;42.808;23.408;2022-09-17T03:46:15;93898.50;;;17.64;100.00
24280;BME280;12395;42.808;23.408;2022-09-17T03:48:40;93901.16;;;17.69;100.00
24280;BME280;12395;42.808;23.408;2022-09-17T03:51:06;93916.13;;;17.76;100.00
24280;BME280;12395;42.808;23.408;2022-09-17T03:53:32;93901.91;;;17.80;100.00
24280;BME280;12395;42.808;23.408;2022-09-17T03:55:59;93908.03;;;17.86;100.00
24280;BME280;12395;42.808;23.408;2022-09-17T03:58:25;93907.31;;;17.70;100.00
24280;BME280;12395;42.808;23.408;2022-09-17T04:00:50;93901.97;;;17.60;100.00
24280;BME280;12395;42.808;23.408;2022-09-17T04:03:22;93925.72;;;17.82;100.00
24280;BME280;12395;42.808;23.408;2022-09-17T04:05:47;93926.53;;;17.87;99.57
24280;BME280;12395;42.808;23.408;2022-09-17T04:08:12;93927.56;;;17.91;100.00
24280;BME280;12395;42.808;23.408;2022-09-17T04:10:38;93931.06;;;17.92;99.37
24280;BME280;12395;42.808;23.408;2022-09-17T04:13:03;93933.47;;;17.88;100.00
24280;BME280;12395;42.808;23.408;2022-09-17T04:15:29;93937.78;;;17.89;100.00
24280;BME280;12395;42.808;23.408;2022-09-17T04:17:55;93975.28;;;17.89;100.00
24280;BME280;12395;42.808;23.408;2022-09-17T04:20:22;93976.41;;;17.73;100.00
24280;BME280;12395;42.808;23.408;2022-09-17T04:22:47;93969.50;;;17.52;100.00
24280;BME280;12395;42.808;23.408;2022-09-17T04:25:12;93989.03;;;17.47;100.00
24280;BME280;12395;42.808;23.408;2022-09-17T04:27:38;94003.53;;;17.41;100.00
24280;BME280;12395;42.808;23.408;2022-09-17T04:30:04;94030.81;;;17.43;100.00
24280;BME280;12395;42.808;23.408;2022-09-17T04:32:29;94044.22;;;17.43;100.00
24280;BME280;12395;42.808;23.408;2022-09-17T04:34:55;94043.41;;;17.43;100.00
24280;BME280;12395;42.808;23.408;2022-09-17T04:37:20;94059.75;;;17.41;100.00
24280;BME280;12395;42.808;23.408;2022-09-17T04:39:46;94052.53;;;17.37;100.00
24280;BME280;12395;42.808;23.408;2022-09-17T04:42:11;94049.34;;;17.25;100.00
24280;BME280;12395;42.808;23.408;2022-09-17T04:44:36;94082.50;;;17.24;100.00
24280;BME280;12395;42.808;23.408;2022-09-17T04:47:02;94094.84;;;17.15;100.00
24280;BME280;12395;42.808;23.408;2022-09-17T04:49:27;94091.88;;;17.11;100.00
24280;BME280;12395;42.808;23.408;2022-09-17T04:51:57;94102.34;;;17.13;100.00
24280;BME280;12395;42.808;23.408;2022-09-17T04:54:23;94082.25;;;17.05;100.00
24280;BME280;12395;42.808;23.408;2022-09-17T04:56:48;94079.03;;;16.93;100.00
24280;BME280;12395;42.808;23.408;2022-09-17T04:59:14;94091.88;;;16.96;100.00
24280;BME280;12395;42.808;23.408;2022-09-17T05:01:39;94087.31;;;16.91;100.00
24280;BME280;12395;42.808;23.408;2022-09-17T05:04:06;94102.31;;;16.92;100.00
24280;BME280;12395;42.808;23.408;2022-09-17T05:06:31;94115.72;;;17.08;100.00
24280;BME280;12395;42.808;23.408;2022-09-17T05:08:57;94094.56;;;17.01;100.00
24280;BME280;12395;42.808;23.408;2022-09-17T05:11:23;94099.66;;;17.08;100.00
24280;BME280;12395;42.808;23.408;2022-09-17T05:13:48;94083.31;;;17.09;100.00
24280;BME280;12395;42.808;23.408;2022-09-17T05:16:13;94075.81;;;17.11;100.00
24280;BME280;12395;42.808;23.408;2022-09-17T05:18:39;94072.09;;;17.12;100.00
24280;BME280;12395;42.808;23.408;2022-09-17T05:21:04;94078.78;;;17.20;100.00
24280;BME280;12395;42.808;23.408;2022-09-17T05:23:30;94082.53;;;17.19;100.00
24280;BME280;12395;42.808;23.408;2022-09-17T05:25:59;94068.34;;;17.18;100.00
24280;BME280;12395;42.808;23.408;2022-09-17T05:28:25;94064.59;;;17.24;100.00
24280;BME280;12395;42.808;23.408;2022-09-17T05:30:51;94049.31;;;17.20;100.00
24280;BME280;12395;42.808;23.408;2022-09-17T05:33:17;94041.28;;;17.20;100.00
24280;BME280;12395;42.808;23.408;2022-09-17T05:35:43;94068.34;;;17.33;100.00
24280;BME280;12395;42.808;23.408;2022-09-17T05:38:09;94048.81;;;17.28;100.00
24280;BME280;12395;42.808;23.408;2022-09-17T05:40:34;94073.94;;;17.37;100.00
24280;BME280;12395;42.808;23.408;2022-09-17T05:43:03;94062.44;;;17.26;100.00
24280;BME280;12395;42.808;23.408;2022-09-17T05:45:32;94078.25;;;17.33;100.00
24280;BME280;12395;42.808;23.408;2022-09-17T05:47:59;94081.72;;;17.33;100.00
24280;BME280;12395;42.808;23.408;2022-09-17T05:50:27;94065.66;;;17.28;100.00
24280;BME280;12395;42.808;23.408;2022-09-17T05:52:53;94076.63;;;17.42;100.00
24280;BME280;12395;42.808;23.408;2022-09-17T05:55:20;94071.56;;;17.40;100.00
24280;BME280;12395;42.808;23.408;2022-09-17T05:57:46;94063.78;;;17.44;100.00
24280;BME280;12395;42.808;23.408;2022-09-17T06:00:12;94078.50;;;17.46;100.00
24280;BME280;12395;42.808;23.408;2022-09-17T06:02:38;94073.16;;;17.36;100.00
24280;BME280;12395;42.808;23.408;2022-09-17T06:05:04;94076.66;;;17.32;100.00
24280;BME280;12395;42.808;23.408;2022-09-17T06:07:29;94072.88;;;17.43;100.00
24280;BME280;12395;42.808;23.408;2022-09-17T06:09:55;94065.94;;;17.32;100.00
24280;BME280;12395;42.808;23.408;2022-09-17T06:12:21;94086.81;;;17.35;100.00
24280;BME280;12395;42.808;23.408;2022-09-17T06:14:47;94113.59;;;17.25;100.00
24280;BME280;12395;42.808;23.408;2022-09-17T06:17:12;94135.25;;;17.28;100.00
24280;BME280;12395;42.808;23.408;2022-09-17T06:19:38;94131.25;;;17.21;100.00
24280;BME280;12395;42.808;23.408;2022-09-17T06:22:03;94144.91;;;17.24;100.00
24280;BME280;12395;42.808;23.408;2022-09-17T06:24:30;94167.16;;;17.30;100.00
24280;BME280;12395;42.808;23.408;2022-09-17T06:26:56;94149.47;;;17.29;100.00
24280;BME280;12395;42.808;23.408;2022-09-17T06:29:22;94140.91;;;17.32;100.00
24280;BME280;12395;42.808;23.408;2022-09-17T06:31:48;94146.25;;;17.32;100.00
24280;BME280;12395;42.808;23.408;2022-09-17T06:34:13;94122.41;;;17.15;100.00
24280;BME280;12395;42.808;23.408;2022-09-17T06:36:39;94110.38;;;17.08;100.00
24280;BME280;12395;42.808;23.408;2022-09-17T06:39:04;94152.66;;;17.16;100.00
24280;BME280;12395;42.808;23.408;2022-09-17T06:41:30;94148.09;;;17.06;100.00
24280;BME280;12395;42.808;23.408;2022-09-17T06:43:55;94144.09;;;17.04;100.00
24280;BME280;12395;42.808;23.408;2022-09-17T06:46:21;94146.75;;;17.14;100.00
24280;BME280;12395;42.808;23.408;2022-09-17T06:48:46;94141.94;;;17.06;100.00
24280;BME280;12395;42.808;23.408;2022-09-17T06:51:12;94099.88;;;16.76;100.00
24280;BME280;12395;42.808;23.408;2022-09-17T06:53:39;94130.41;;;17.00;100.00
24280;BME280;12395;42.808;23.408;2022-09-17T06:56:05;94107.16;;;16.95;100.00
24280;BME280;12395;42.808;23.408;2022-09-17T06:58:31;94114.09;;;16.96;100.00
24280;BME280;12395;42.808;23.408;2022-09-17T07:00:58;94096.16;;;16.87;100.00
24280;BME280;12395;42.808;23.408;2022-09-17T07:03:25;94117.31;;;17.04;100.00
24280;BME280;12395;42.808;23.408;2022-09-17T07:05:50;94130.19;;;17.17;100.00
24280;BME280;12395;42.808;23.408;2022-09-17T07:08:16;94086.00;;;16.99;100.00
24280;BME280;12395;42.808;23.408;2022-09-17T07:10:42;94099.13;;;17.11;100.00
24280;BME280;12395;42.808;23.408;2022-09-17T07:13:07;94072.38;;;17.11;100.00
24280;BME280;12395;42.808;23.408;2022-09-17T07:15:33;94068.34;;;17.13;100.00
24280;BME280;12395;42.808;23.408;2022-09-17T07:17:58;94041.84;;;17.07;100.00
24280;BME280;12395;42.808;23.408;2022-09-17T07:20:24;94033.28;;;17.15;100.00
24280;BME280;12395;42.808;23.408;2022-09-17T07:22:56;94030.59;;;17.30;100.00
24280;BME280;12395;42.808;23.408;2022-09-17T07:25:23;94029.75;;;17.49;100.00
24280;BME280;12395;42.808;23.408;2022-09-17T07:27:49;94010.22;;;17.59;100.00
24280;BME280;12395;42.808;23.408;2022-09-17T07:30:14;94018.69;;;17.96;100.00
24280;BME280;12395;42.808;23.408;2022-09-17T07:32:40;94025.75;;;18.31;100.00
24280;BME280;12395;42.808;23.408;2022-09-17T07:35:06;94048.06;;;18.75;100.00
24280;BME280;12395;42.808;23.408;2022-09-17T07:37:32;94047.06;;;19.05;100.00
24280;BME280;12395;42.808;23.408;2022-09-17T07:39:57;94034.44;;;19.39;100.00
24280;BME280;12395;42.808;23.408;2022-09-17T07:42:22;94037.78;;;19.55;100.00
24280;BME280;12395;42.808;23.408;2022-09-17T07:44:48;94028.47;;;19.47;100.00
24280;BME280;12395;42.808;23.408;2022-09-17T07:47:13;94041.34;;;19.50;100.00
24280;BME280;12395;42.808;23.408;2022-09-17T07:49:39;94060.06;;;19.55;98.33
24280;BME280;12395;42.808;23.408;2022-09-17T07:52:04;94053.16;;;19.78;99.02
24280;BME280;12395;42.808;23.408;2022-09-17T07:54:33;94057.28;;;19.94;97.35
24280;BME280;12395;42.808;23.408;2022-09-17T07:57:01;94062.84;;;20.26;99.12
24280;BME280;12395;42.808;23.408;2022-09-17T07:59:26;94074.81;;;20.39;93.41
24280;BME280;12395;42.808;23.408;2022-09-17T08:01:51;94066.19;;;20.60;91.72
24280;BME280;12395;42.808;23.408;2022-09-17T08:04:17;94041.25;;;20.55;92.74
24280;BME280;12395;42.808;23.408;2022-09-17T08:06:42;94039.56;;;20.59;91.17
24280;BME280;12395;42.808;23.408;2022-09-17T08:09:08;94017.13;;;20.45;91.63
24280;BME280;12395;42.808;23.408;2022-09-17T08:11:35;94001.94;;;20.72;92.99
24280;BME280;12395;42.808;23.408;2022-09-17T08:14:00;94027.78;;;21.11;91.60
24280;BME280;12395;42.808;23.408;2022-09-17T08:16:26;94019.75;;;21.24;87.85
24280;BME280;12395;42.808;23.408;2022-09-17T08:18:56;94020.56;;;21.25;89.76
24280;BME280;12395;42.808;23.408;2022-09-17T08:21:22;94016.25;;;21.56;88.27
24280;BME280;12395;42.808;23.408;2022-09-17T08:23:48;94012.69;;;21.74;87.97
24280;BME280;12395;42.808;23.408;2022-09-17T08:26:18;94001.03;;;21.92;86.49
24280;BME280;12395;42.808;23.408;2022-09-17T08:28:49;93999.34;;;21.83;86.93
24280;BME280;12395;42.808;23.408;2022-09-17T08:31:17;93992.16;;;22.05;87.15
24280;BME280;12395;42.808;23.408;2022-09-17T08:33:43;93988.31;;;22.47;84.98
24280;BME280;12395;42.808;23.408;2022-09-17T08:36:11;94003.19;;;22.58;80.58
24280;BME280;12395;42.808;23.408;2022-09-17T08:38:37;94003.31;;;22.53;75.78
24280;BME280;12395;42.808;23.408;2022-09-17T08:46:09;93985.22;;;22.89;76.77
24280;BME280;12395;42.808;23.408;2022-09-17T08:51:51;93988.84;;;22.85;79.71
24280;BME280;12395;42.808;23.408;2022-09-17T08:54:45;93993.22;;;22.94;79.46
24280;BME280;12395;42.808;23.408;2022-09-17T08:59:58;93990.94;;;23.10;79.62
24280;BME280;12395;42.808;23.408;2022-09-17T09:05:17;93984.53;;;22.84;80.97
24280;BME280;12395;42.808;23.408;2022-09-17T09:10:21;94005.63;;;22.60;82.84
24280;BME280;12395;42.808;23.408;2022-09-17T09:12:50;94014.41;;;22.52;83.91
24280;BME280;12395;42.808;23.408;2022-09-17T09:15:42;94019.00;;;22.38;83.49
24280;BME280;12395;42.808;23.408;2022-09-17T09:18:23;94013.75;;;22.19;84.61
24280;BME280;12395;42.808;23.408;2022-09-17T09:20:52;94014.75;;;21.96;85.29
24280;BME280;12395;42.808;23.408;2022-09-17T09:23:27;94032.72;;;21.87;86.02
24280;BME280;12395;42.808;23.408;2022-09-17T09:26:13;94040.47;;;21.42;86.79
24280;BME280;12395;42.808;23.408;2022-09-17T09:34:04;94070.28;;;20.95;94.58
24280;BME280;12395;42.808;23.408;2022-09-17T09:36:31;94063.06;;;20.91;95.74
24280;BME280;12395;42.808;23.408;2022-09-17T09:39:11;94082.50;;;20.88;94.95
24280;BME280;12395;42.808;23.408;2022-09-17T09:41:47;94079.94;;;20.77;96.50
24280;BME280;12395;42.808;23.408;2022-09-17T09:44:14;94088.53;;;20.61;97.33
24280;BME280;12395;42.808;23.408;2022-09-17T09:49:51;94087.91;;;20.45;100.00
24280;BME280;12395;42.808;23.408;2022-09-17T09:58:04;94120.66;;;20.29;100.00
24280;BME280;12395;42.808;23.408;2022-09-17T10:00:37;94124.50;;;20.18;100.00
24280;BME280;12395;42.808;23.408;2022-09-17T10:03:17;94106.84;;;20.12;100.00
24280;BME280;12395;42.808;23.408;2022-09-17T10:08:23;94087.59;;;19.99;100.00
24280;BME280;12395;42.808;23.408;2022-09-17T10:10:57;94066.63;;;20.02;100.00
24280;BME280;12395;42.808;23.408;2022-09-17T10:13:23;94070.38;;;20.00;100.00
24280;BME280;12395;42.808;23.408;2022-09-17T10:15:49;94041.81;;;20.05;100.00
24280;BME280;12395;42.808;23.408;2022-09-17T10:18:17;93992.44;;;19.95;100.00
24280;BME280;12395;42.808;23.408;2022-09-17T10:20:57;93965.13;;;19.88;100.00
24280;BME280;12395;42.808;23.408;2022-09-17T10:23:26;93983.78;;;19.80;100.00
24280;BME280;12395;42.808;23.408;2022-09-17T10:25:52;93964.66;;;19.81;100.00
24280;BME280;12395;42.808;23.408;2022-09-17T10:31:10;93952.44;;;19.70;100.00
24280;BME280;12395;42.808;23.408;2022-09-17T10:34:02;93949.63;;;19.80;100.00
24280;BME280;12395;42.808;23.408;2022-09-17T10:36:45;93921.72;;;19.76;100.00
24280;BME280;12395;42.808;23.408;2022-09-17T10:44:35;93967.06;;;19.83;100.00
24280;BME280;12395;42.808;23.408;2022-09-17T10:47:17;93961.34;;;19.89;100.00
24280;BME280;12395;42.808;23.408;2022-09-17T10:49:56;93965.22;;;20.26;100.00
24280;BME280;12395;42.808;23.408;2022-09-17T10:52:38;93967.75;;;20.73;100.00
24280;BME280;12395;42.808;23.408;2022-09-17T10:55:32;93963.06;;;21.16;100.00
24280;BME280;12395;42.808;23.408;2022-09-17T11:03:45;93986.34;;;21.98;94.09
24280;BME280;12395;42.808;23.408;2022-09-17T11:06:37;93970.97;;;22.26;94.15
24280;BME280;12395;42.808;23.408;2022-09-17T11:11:58;93972.31;;;22.64;92.45
24280;BME280;12395;42.808;23.408;2022-09-17T11:20:02;93986.34;;;23.11;91.49
24280;BME280;12395;42.808;23.408;2022-09-17T11:30:47;94007.69;;;23.34;85.60
24280;BME280;12395;42.808;23.408;2022-09-17T11:36:27;94011.91;;;23.71;84.84
24280;BME280;12395;42.808;23.408;2022-09-17T11:38:56;93996.91;;;23.65;86.27
24280;BME280;12395;42.808;23.408;2022-09-17T11:41:26;94012.13;;;23.61;83.38
24280;BME280;12395;42.808;23.408;2022-09-17T11:44:19;94010.06;;;23.58;85.75
24280;BME280;12395;42.808;23.408;2022-09-17T11:46:56;94001.94;;;23.58;83.84
24280;BME280;12395;42.808;23.408;2022-09-17T11:49:55;93995.06;;;23.30;82.69
24280;BME280;12395;42.808;23.408;2022-09-17T11:52:41;93982.28;;;23.22;83.93
24280;BME280;12395;42.808;23.408;2022-09-17T11:57:59;93962.75;;;23.25;83.55
24280;BME280;12395;42.808;23.408;2022-09-17T12:00:28;93962.75;;;23.25;85.24
24280;BME280;12395;42.808;23.408;2022-09-17T12:05:50;93941.22;;;22.89;86.24
24280;BME280;12395;42.808;23.408;2022-09-17T12:08:36;93945.56;;;22.76;85.10
24280;BME280;12395;42.808;23.408;2022-09-17T12:11:14;93955.50;;;22.67;85.40
24280;BME280;12395;42.808;23.408;2022-09-17T12:13:45;93964.72;;;22.88;89.92
24280;BME280;12395;42.808;23.408;2022-09-17T12:16:25;93969.31;;;22.66;80.27
24280;BME280;12395;42.808;23.408;2022-09-17T12:19:11;93966.81;;;22.42;82.54
24280;BME280;12395;42.808;23.408;2022-09-17T12:21:45;93956.59;;;22.17;81.39
24280;BME280;12395;42.808;23.408;2022-09-17T12:29:49;93976.56;;;21.89;84.33
24280;BME280;12395;42.808;23.408;2022-09-17T12:36:09;93979.00;;;21.58;84.63
24280;BME280;12395;42.808;23.408;2022-09-17T12:41:13;93969.56;;;21.28;89.23
24280;BME280;12395;42.808;23.408;2022-09-17T12:44:14;93957.38;;;21.17;88.24
24280;BME280;12395;42.808;23.408;2022-09-17T12:47:31;93960.28;;;21.02;86.36
24280;BME280;12395;42.808;23.408;2022-09-17T12:58:06;93908.56;;;20.54;86.20
24280;BME280;12395;42.808;23.408;2022-09-17T13:00:47;93922.69;;;20.46;84.69
24280;BME280;12395;42.808;23.408;2022-09-17T13:03:31;93925.31;;;20.33;88.10
24280;BME280;12395;42.808;23.408;2022-09-17T13:06:15;93910.97;;;20.19;88.76
24280;BME280;12395;42.808;23.408;2022-09-17T13:09:23;93921.66;;;20.24;91.68
24280;BME280;12395;42.808;23.408;2022-09-17T13:22:47;93899.28;;;19.67;96.18
24280;BME280;12395;42.808;23.408;2022-09-17T13:25:15;93897.53;;;19.53;96.13
24280;BME280;12395;42.808;23.408;2022-09-17T13:27:42;93906.47;;;19.48;99.77
24280;BME280;12395;42.808;23.408;2022-09-17T13:30:10;93896.34;;;19.40;100.00
24280;BME280;12395;42.808;23.408;2022-09-17T13:37:41;93871.91;;;19.13;100.00
24280;BME280;12395;42.808;23.408;2022-09-17T13:42:52;93850.31;;;18.99;100.00
24280;BME280;12395;42.808;23.408;2022-09-17T13:45:22;93814.44;;;18.67;100.00
24280;BME280;12395;42.808;23.408;2022-09-17T13:50:36;93825.38;;;18.70;100.00
24280;BME280;12395;42.808;23.408;2022-09-17T13:58:28;93804.34;;;18.54;100.00
24280;BME280;12395;42.808;23.408;2022-09-17T14:00:58;93784.22;;;18.56;100.00
24280;BME280;12395;42.808;23.408;2022-09-17T14:08:27;93754.66;;;18.32;100.00
24280;BME280;12395;42.808;23.408;2022-09-17T14:10:54;93755.69;;;18.36;100.00
24280;BME280;12395;42.808;23.408;2022-09-17T14:13:41;93779.75;;;18.41;100.00
24280;BME280;12395;42.808;23.408;2022-09-17T14:24:34;93793.16;;;18.46;100.00
24280;BME280;12395;42.808;23.408;2022-09-17T14:27:09;93801.19;;;18.46;100.00
24280;BME280;12395;42.808;23.408;2022-09-17T14:29:51;93789.84;;;18.55;100.00
24280;BME280;12395;42.808;23.408;2022-09-17T14:35:25;93750.41;;;18.26;100.00
24280;BME280;12395;42.808;23.408;2022-09-17T14:38:23;93782.72;;;18.45;100.00
24280;BME280;12395;42.808;23.408;2022-09-17T14:46:05;93750.25;;;18.41;100.00
24280;BME280;12395;42.808;23.408;2022-09-17T14:48:33;93758.81;;;18.48;100.00
24280;BME280;12395;42.808;23.408;2022-09-17T14:51:31;93693.50;;;18.34;100.00
24280;BME280;12395;42.808;23.408;2022-09-17T14:56:31;93724.09;;;18.28;100.00
24280;BME280;12395;42.808;23.408;2022-09-17T14:58:59;93707.59;;;18.16;100.00
24280;BME280;12395;42.808;23.408;2022-09-17T15:01:27;93713.53;;;18.13;100.00
24280;BME280;12395;42.808;23.408;2022-09-17T15:06:37;93692.13;;;18.08;100.00
24280;BME280;12395;42.808;23.408;2022-09-17T15:09:03;93695.47;;;17.95;100.00
24280;BME280;12395;42.808;23.408;2022-09-17T15:11:29;93685.41;;;17.82;100.00
24280;BME280;12395;42.808;23.408;2022-09-17T15:13:55;93716.69;;;17.92;100.00
24280;BME280;12395;42.808;23.408;2022-09-17T15:16:25;93700.09;;;17.90;100.00
24280;BME280;12395;42.808;23.408;2022-09-17T15:18:52;93701.97;;;17.89;100.00
24280;BME280;12395;42.808;23.408;2022-09-17T15:21:57;93692.31;;;17.88;100.00
24280;BME280;12395;42.808;23.408;2022-09-17T15:26:48;93682.69;;;17.87;100.00
24280;BME280;12395;42.808;23.408;2022-09-17T15:29:19;93669.84;;;17.84;100.00
24280;BME280;12395;42.808;23.408;2022-09-17T15:31:46;93664.88;;;17.73;100.00
24280;BME280;12395;42.808;23.408;2022-09-17T15:34:12;93678.28;;;17.67;100.00
24280;BME280;12395;42.808;23.408;2022-09-17T15:36:37;93692.00;;;17.61;100.00
24280;BME280;12395;42.808;23.408;2022-09-17T15:39:55;93687.16;;;17.63;100.00
24280;BME280;12395;42.808;23.408;2022-09-17T15:42:39;93679.69;;;17.60;100.00
24280;BME280;12395;42.808;23.408;2022-09-17T15:45:14;93688.84;;;17.54;100.00
24280;BME280;12395;42.808;23.408;2022-09-17T15:47:58;93692.00;;;17.61;100.00
24280;BME280;12395;42.808;23.408;2022-09-17T15:52:57;93674.88;;;17.62;100.00
24280;BME280;12395;42.808;23.408;2022-09-17T15:57:57;93657.19;;;17.61;100.00
24280;BME280;12395;42.808;23.408;2022-09-17T16:00:23;93709.94;;;17.94;100.00
24280;BME280;12395;42.808;23.408;2022-09-17T16:02:49;93702.56;;;17.81;100.00
24280;BME280;12395;42.808;23.408;2022-09-17T16:07:41;93691.28;;;17.84;100.00
24280;BME280;12395;42.808;23.408;2022-09-17T16:10:09;93652.03;;;17.69;100.00
24280;BME280;12395;42.808;23.408;2022-09-17T16:12:35;93659.19;;;17.79;100.00
24280;BME280;12395;42.808;23.408;2022-09-17T16:15:01;93638.63;;;17.69;100.00
24280;BME280;12395;42.808;23.408;2022-09-17T16:20:18;93645.53;;;17.76;100.00
24280;BME280;12395;42.808;23.408;2022-09-17T16:22:44;93597.34;;;17.42;100.00
24280;BME280;12395;42.808;23.408;2022-09-17T16:25:12;93637.31;;;17.67;100.00